sensor_id;sensor_type;location;lat;lon;timestamp;temperature;humidity
17146;DHT22;8688;54.444;18.444;2023-05-14T00:00:14;10.90;99.90
17146;DHT22;8688;54.444;18.444;2023-05-14T00:02:42;10.80;99.90
17146;DHT22;8688;54.444;18.444;2023-05-14T00:05:10;10.80;99.90
17146;DHT22;8688;54.444;18.444;2023-05-14T00:07:38;10.70;99.90
17146;DHT22;8688;54.444;18.444;2023-05-14T00:10:06;10.50;99.90
17146;DHT22;8688;54.444;18.444;2023-05-14T00:12:34;10.40;99.90
17146;DHT22;8688;54.444;18.444;2023-05-14T00:15:01;10.40;99.90
17146;DHT22;8688;54.444;18.444;2023-05-14T00:17:29;10.30;99.90
17146;DHT22;8688;54.444;18.444;2023-05-14T00:19:56;10.30;99.90
17146;DHT22;8688;54.444;18.444;2023-05-14T00:22:25;10.20;99.90
17146;DHT22;8688;54.444;18.444;2023-05-14T00:24:53;10.30;99.90
17146;DHT22;8688;54.444;18.444;2023-05-14T00:27:20;10.30;99.90
17146;DHT22;8688;54.444;18.444;2023-05-14T00:29:48;10.30;99.90
17146;DHT22;8688;54.444;18.444;2023-05-14T00:32:15;10.30;99.90
17146;DHT22;8688;54.444;18.444;2023-05-14T00:34:43;10.20;99.90
17146;DHT22;8688;54.444;18.444;2023-05-14T00:37:10;10.20;99.90
17146;DHT22;8688;54.444;18.444;2023-05-14T00:39:39;10.20;99.90
17146;DHT22;8688;54.444;18.444;2023-05-14T00:42:06;10.20;99.90
17146;DHT22;8688;54.444;18.444;2023-05-14T00:44:34;10.20;99.90
17146;DHT22;8688;54.444;18.444;2023-05-14T00:47:02;10.10;99.90
17146;DHT22;8688;54.444;18.444;2023-05-14T00:49:31;10.00;99.90
17146;DHT22;8688;54.444;18.444;2023-05-14T00:51:58;10.00;99.90
17146;DHT22;8688;54.444;18.444;2023-05-14T00:54:26;9.90;99.90
17146;DHT22;8688;54.444;18.444;2023-05-14T00:56:56;9.80;99.90
17146;DHT22;8688;54.444;18.444;2023-05-14T00:59:23;9.90;99.90
17146;DHT22;8688;54.444;18.444;2023-05-14T01:01:52;9.80;99.90
17146;DHT22;8688;54.444;18.444;2023-05-14T01:04:19;9.80;99.90
17146;DHT22;8688;54.444;18.444;2023-05-14T01:07:06;9.80;99.90
17146;DHT22;8688;54.444;18.444;2023-05-14T01:09:42;9.70;99.90
17146;DHT22;8688;54.444;18.444;2023-05-14T01:12:18;9.60;99.90
17146;DHT22;8688;54.444;18.444;2023-05-14T01:14:54;9.50;99.90
17146;DHT22;8688;54.444;18.444;2023-05-14T01:17:27;9.50;99.90
17146;DHT22;8688;54.444;18.444;2023-05-14T01:19:55;9.30;99.90
17146;DHT22;8688;54.444;18.444;2023-05-14T01:22:25;9.20;99.90
17146;DHT22;8688;54.444;18.444;2023-05-14T01:24:53;9.20;99.90
17146;DHT22;8688;54.444;18.444;2023-05-14T01:27:27;9.30;99.90
17146;DHT22;8688;54.444;18.444;2023-05-14T01:30:00;9.30;99.90
17146;DHT22;8688;54.444;18.444;2023-05-14T01:32:29;9.40;99.90
17146;DHT22;8688;54.444;18.444;2023-05-14T01:34:58;9.30;99.90
17146;DHT22;8688;54.444;18.444;2023-05-14T01:37:29;9.30;99.90
17146;DHT22;8688;54.444;18.444;2023-05-14T01:39:58;9.20;99.90
17146;DHT22;8688;54.444;18.444;2023-05-14T01:42:26;9.20;99.90
17146;DHT22;8688;54.444;18.444;2023-05-14T01:44:55;9.20;99.90
17146;DHT22;8688;54.444;18.444;2023-05-14T01:47:22;9.20;99.90
17146;DHT22;8688;54.444;18.444;2023-05-14T01:49:50;9.20;99.90
17146;DHT22;8688;54.444;18.444;2023-05-14T01:52:17;9.20;99.90
17146;DHT22;8688;54.444;18.444;2023-05-14T01:54:47;9.20;99.90
17146;DHT22;8688;54.444;18.444;2023-05-14T01:57:15;9.10;99.90
17146;DHT22;8688;54.444;18.444;2023-05-14T01:59:42;9.10;99.90
17146;DHT22;8688;54.444;18.444;2023-05-14T02:02:10;9.20;99.90
17146;DHT22;8688;54.444;18.444;2023-05-14T02:04:37;9.10;99.90
17146;DHT22;8688;54.444;18.444;2023-05-14T02:07:05;9.10;99.90
17146;DHT22;8688;54.444;18.444;2023-05-14T02:09:32;9.00;99.90
17146;DHT22;8688;54.444;18.444;2023-05-14T02:12:01;9.00;99.90
17146;DHT22;8688;54.444;18.444;2023-05-14T02:14:28;8.90;99.90
17146;DHT22;8688;54.444;18.444;2023-05-14T02:16:56;8.90;99.90
17146;DHT22;8688;54.444;18.444;2023-05-14T02:19:23;9.00;99.90
17146;DHT22;8688;54.444;18.444;2023-05-14T02:21:51;9.00;99.90
17146;DHT22;8688;54.444;18.444;2023-05-14T02:24:18;9.00;99.90
17146;DHT22;8688;54.444;18.444;2023-05-14T02:26:46;9.00;99.90
17146;DHT22;8688;54.444;18.444;2023-05-14T02:29:15;9.00;99.90
17146;DHT22;8688;54.444;18.444;2023-05-14T02:31:42;8.90;99.90
17146;DHT22;8688;54.444;18.444;2023-05-14T02:34:10;8.90;99.90
17146;DHT22;8688;54.444;18.444;2023-05-14T02:36:37;8.90;99.90
17146;DHT22;8688;54.444;18.444;2023-05-14T02:39:04;8.80;99.90
17146;DHT22;8688;54.444;18.444;2023-05-14T02:41:32;8.80;99.90
17146;DHT22;8688;54.444;18.444;2023-05-14T02:43:59;8.70;99.90
17146;DHT22;8688;54.444;18.444;2023-05-14T02:46:30;8.70;99.90
17146;DHT22;8688;54.444;18.444;2023-05-14T02:48:58;8.70;99.90
17146;DHT22;8688;54.444;18.444;2023-05-14T02:51:25;8.80;99.90
17146;DHT22;8688;54.444;18.444;2023-05-14T02:53:53;8.80;99.90
17146;DHT22;8688;54.444;18.444;2023-05-14T02:56:20;8.80;99.90
17146;DHT22;8688;54.444;18.444;2023-05-14T02:58:48;8.80;99.90
17146;DHT22;8688;54.444;18.444;2023-05-14T03:01:15;8.80;99.90
17146;DHT22;8688;54.444;18.444;2023-05-14T03:03:45;8.80;99.90
17146;DHT22;8688;54.444;18.444;2023-05-14T03:06:12;8.80;99.90
17146;DHT22;8688;54.444;18.444;2023-05-14T03:08:39;8.70;99.90
17146;DHT22;8688;54.444;18.444;2023-05-14T03:11:07;8.70;99.90
17146;DHT22;8688;54.444;18.444;2023-05-14T03:13:35;8.70;99.90
17146;DHT22;8688;54.444;18.444;2023-05-14T03:16:02;8.70;99.90
17146;DHT22;8688;54.444;18.444;2023-05-14T03:18:30;8.70;99.90
17146;DHT22;8688;54.444;18.444;2023-05-14T03:21:00;8.60;99.90
17146;DHT22;8688;54.444;18.444;2023-05-14T03:23:28;8.50;99.90
17146;DHT22;8688;54.444;18.444;2023-05-14T03:25:56;8.40;99.90
17146;DHT22;8688;54.444;18.444;2023-05-14T03:28:24;8.40;99.90
17146;DHT22;8688;54.444;18.444;2023-05-14T03:30:52;8.50;99.90
17146;DHT22;8688;54.444;18.444;2023-05-14T03:33:19;8.60;99.90
17146;DHT22;8688;54.444;18.444;2023-05-14T03:35:47;8.60;99.90
17146;DHT22;8688;54.444;18.444;2023-05-14T03:38:16;8.70;99.90
17146;DHT22;8688;54.444;18.444;2023-05-14T03:40:44;8.80;99.90
17146;DHT22;8688;54.444;18.444;2023-05-14T03:43:11;8.80;99.90
17146;DHT22;8688;54.444;18.444;2023-05-14T03:45:39;8.80;99.90
17146;DHT22;8688;54.444;18.444;2023-05-14T03:48:06;8.90;99.90
17146;DHT22;8688;54.444;18.444;2023-05-14T03:50:34;8.90;99.90
17146;DHT22;8688;54.444;18.444;2023-05-14T03:53:01;9.00;99.90
17146;DHT22;8688;54.444;18.444;2023-05-14T03:55:30;9.00;99.90
17146;DHT22;8688;54.444;18.444;2023-05-14T03:57:58;9.10;99.90
17146;DHT22;8688;54.444;18.444;2023-05-14T04:00:25;9.20;99.90
17146;DHT22;8688;54.444;18.444;2023-05-14T04:02:53;9.20;99.90
17146;DHT22;8688;54.444;18.444;2023-05-14T04:05:20;9.10;99.90
17146;DHT22;8688;54.444;18.444;2023-05-14T04:07:48;9.10;99.90
17146;DHT22;8688;54.444;18.444;2023-05-14T04:10:17;9.20;99.90
17146;DHT22;8688;54.444;18.444;2023-05-14T04:12:46;9.30;99.90
17146;DHT22;8688;54.444;18.444;2023-05-14T04:15:13;9.30;99.90
17146;DHT22;8688;54.444;18.444;2023-05-14T04:17:41;9.40;99.90
17146;DHT22;8688;54.444;18.444;2023-05-14T04:20:11;9.60;99.90
17146;DHT22;8688;54.444;18.444;2023-05-14T04:22:39;9.70;99.90
17146;DHT22;8688;54.444;18.444;2023-05-14T04:25:07;9.80;99.90
17146;DHT22;8688;54.444;18.444;2023-05-14T04:27:34;10.00;99.90
17146;DHT22;8688;54.444;18.444;2023-05-14T04:30:04;10.10;99.90
17146;DHT22;8688;54.444;18.444;2023-05-14T04:32:33;10.10;99.90
17146;DHT22;8688;54.444;18.444;2023-05-14T04:35:01;10.20;99.90
17146;DHT22;8688;54.444;18.444;2023-05-14T04:37:29;10.20;99.90
17146;DHT22;8688;54.444;18.444;2023-05-14T04:39:57;10.30;99.90
17146;DHT22;8688;54.444;18.444;2023-05-14T04:42:25;10.40;99.90
17146;DHT22;8688;54.444;18.444;2023-05-14T04:44:52;10.50;99.90
17146;DHT22;8688;54.444;18.444;2023-05-14T04:47:21;10.50;99.90
17146;DHT22;8688;54.444;18.444;2023-05-14T04:49:49;10.70;99.90
17146;DHT22;8688;54.444;18.444;2023-05-14T04:52:16;10.80;99.90
17146;DHT22;8688;54.444;18.444;2023-05-14T04:54:44;10.90;99.90
17146;DHT22;8688;54.444;18.444;2023-05-14T04:57:11;11.10;99.90
17146;DHT22;8688;54.444;18.444;2023-05-14T04:59:39;11.20;99.90
17146;DHT22;8688;54.444;18.444;2023-05-14T05:02:06;11.30;99.90
17146;DHT22;8688;54.444;18.444;2023-05-14T05:04:35;11.40;99.90
17146;DHT22;8688;54.444;18.444;2023-05-14T05:07:03;11.60;99.90
17146;DHT22;8688;54.444;18.444;2023-05-14T05:09:31;11.70;99.90
17146;DHT22;8688;54.444;18.444;2023-05-14T05:11:58;11.90;99.90
17146;DHT22;8688;54.444;18.444;2023-05-14T05:14:26;12.00;99.90
17146;DHT22;8688;54.444;18.444;2023-05-14T05:16:54;12.10;99.90
17146;DHT22;8688;54.444;18.444;2023-05-14T05:19:21;12.20;99.90
17146;DHT22;8688;54.444;18.444;2023-05-14T05:21:50;12.30;99.90
17146;DHT22;8688;54.444;18.444;2023-05-14T05:24:18;12.50;99.90
17146;DHT22;8688;54.444;18.444;2023-05-14T05:26:45;12.50;99.90
17146;DHT22;8688;54.444;18.444;2023-05-14T05:29:13;12.70;99.90
17146;DHT22;8688;54.444;18.444;2023-05-14T05:31:40;12.80;99.90
17146;DHT22;8688;54.444;18.444;2023-05-14T05:34:08;12.90;99.90
17146;DHT22;8688;54.444;18.444;2023-05-14T05:36:35;13.00;99.90
17146;DHT22;8688;54.444;18.444;2023-05-14T05:39:04;13.10;99.90
17146;DHT22;8688;54.444;18.444;2023-05-14T05:41:32;13.20;99.90
17146;DHT22;8688;54.444;18.444;2023-05-14T05:43:59;13.30;99.90
17146;DHT22;8688;54.444;18.444;2023-05-14T05:46:27;13.50;99.90
17146;DHT22;8688;54.444;18.444;2023-05-14T05:48:54;13.60;99.90
17146;DHT22;8688;54.444;18.444;2023-05-14T05:51:21;13.70;99.90
17146;DHT22;8688;54.444;18.444;2023-05-14T05:53:49;13.80;99.90
17146;DHT22;8688;54.444;18.444;2023-05-14T05:56:18;13.90;99.90
17146;DHT22;8688;54.444;18.444;2023-05-14T05:58:46;14.10;99.90
17146;DHT22;8688;54.444;18.444;2023-05-14T06:01:13;14.20;99.90
17146;DHT22;8688;54.444;18.444;2023-05-14T06:03:41;14.30;99.90
17146;DHT22;8688;54.444;18.444;2023-05-14T06:06:08;14.40;99.90
17146;DHT22;8688;54.444;18.444;2023-05-14T06:08:36;14.50;99.90
17146;DHT22;8688;54.444;18.444;2023-05-14T06:11:03;14.70;99.90
17146;DHT22;8688;54.444;18.444;2023-05-14T06:13:32;14.80;99.90
17146;DHT22;8688;54.444;18.444;2023-05-14T06:15:59;14.90;99.90
17146;DHT22;8688;54.444;18.444;2023-05-14T06:18:27;15.00;99.90
17146;DHT22;8688;54.444;18.444;2023-05-14T06:20:54;15.20;99.90
17146;DHT22;8688;54.444;18.444;2023-05-14T06:23:22;15.30;99.90
17146;DHT22;8688;54.444;18.444;2023-05-14T06:25:49;15.50;99.90
17146;DHT22;8688;54.444;18.444;2023-05-14T06:28:17;15.60;99.90
17146;DHT22;8688;54.444;18.444;2023-05-14T06:30:48;15.70;99.90
17146;DHT22;8688;54.444;18.444;2023-05-14T06:33:16;15.90;99.90
17146;DHT22;8688;54.444;18.444;2023-05-14T06:35:43;16.30;99.90
17146;DHT22;8688;54.444;18.444;2023-05-14T06:38:11;16.60;99.90
17146;DHT22;8688;54.444;18.444;2023-05-14T06:40:39;16.90;99.90
17146;DHT22;8688;54.444;18.444;2023-05-14T06:43:06;17.00;99.90
17146;DHT22;8688;54.444;18.444;2023-05-14T06:45:34;17.00;99.90
17146;DHT22;8688;54.444;18.444;2023-05-14T06:48:03;17.00;99.90
17146;DHT22;8688;54.444;18.444;2023-05-14T06:50:31;17.10;99.90
17146;DHT22;8688;54.444;18.444;2023-05-14T06:52:58;17.10;99.90
17146;DHT22;8688;54.444;18.444;2023-05-14T06:55:26;17.20;99.90
17146;DHT22;8688;54.444;18.444;2023-05-14T06:57:54;17.40;99.90
17146;DHT22;8688;54.444;18.444;2023-05-14T07:00:22;17.70;99.90
17146;DHT22;8688;54.444;18.444;2023-05-14T07:02:49;17.90;99.90
17146;DHT22;8688;54.444;18.444;2023-05-14T07:05:18;18.00;99.90
17146;DHT22;8688;54.444;18.444;2023-05-14T07:07:46;18.10;99.90
17146;DHT22;8688;54.444;18.444;2023-05-14T07:10:13;18.10;99.90
17146;DHT22;8688;54.444;18.444;2023-05-14T07:12:41;18.20;99.90
17146;DHT22;8688;54.444;18.444;2023-05-14T07:15:09;18.20;99.90
17146;DHT22;8688;54.444;18.444;2023-05-14T07:17:36;18.30;99.90
17146;DHT22;8688;54.444;18.444;2023-05-14T07:20:05;18.40;99.90
17146;DHT22;8688;54.444;18.444;2023-05-14T07:22:34;18.60;99.90
17146;DHT22;8688;54.444;18.444;2023-05-14T07:25:01;18.70;99.90
17146;DHT22;8688;54.444;18.444;2023-05-14T07:27:29;18.80;99.90
17146;DHT22;8688;54.444;18.444;2023-05-14T07:29:56;18.70;99.90
17146;DHT22;8688;54.444;18.444;2023-05-14T07:32:24;18.80;99.90
17146;DHT22;8688;54.444;18.444;2023-05-14T07:34:51;18.90;99.90
17146;DHT22;8688;54.444;18.444;2023-05-14T07:37:19;19.00;99.90
17146;DHT22;8688;54.444;18.444;2023-05-14T07:39:48;19.00;99.90
17146;DHT22;8688;54.444;18.444;2023-05-14T07:42:16;19.10;99.90
17146;DHT22;8688;54.444;18.444;2023-05-14T07:44:43;19.10;99.90
17146;DHT22;8688;54.444;18.444;2023-05-14T07:47:11;19.10;99.90
17146;DHT22;8688;54.444;18.444;2023-05-14T07:49:39;19.10;99.90
17146;DHT22;8688;54.444;18.444;2023-05-14T07:52:06;19.10;99.90
17146;DHT22;8688;54.444;18.444;2023-05-14T07:54:34;19.20;97.40
17146;DHT22;8688;54.444;18.444;2023-05-14T07:57:03;19.40;96.30
17146;DHT22;8688;54.444;18.444;2023-05-14T07:59:31;19.40;96.30
17146;DHT22;8688;54.444;18.444;2023-05-14T08:01:58;19.40;95.20
17146;DHT22;8688;54.444;18.444;2023-05-14T08:04:26;19.50;96.30
17146;DHT22;8688;54.444;18.444;2023-05-14T08:06:53;19.50;95.80
17146;DHT22;8688;54.444;18.444;2023-05-14T08:09:23;19.60;95.70
17146;DHT22;8688;54.444;18.444;2023-05-14T08:11:52;19.60;94.40
17146;DHT22;8688;54.444;18.444;2023-05-14T08:14:21;19.60;94.50
17146;DHT22;8688;54.444;18.444;2023-05-14T08:16:48;19.70;92.20
17146;DHT22;8688;54.444;18.444;2023-05-14T08:19:16;19.80;91.30
17146;DHT22;8688;54.444;18.444;2023-05-14T08:21:43;19.90;91.70
17146;DHT22;8688;54.444;18.444;2023-05-14T08:24:11;19.90;91.50
17146;DHT22;8688;54.444;18.444;2023-05-14T08:26:39;19.90;91.50
17146;DHT22;8688;54.444;18.444;2023-05-14T08:29:06;20.00;92.70
17146;DHT22;8688;54.444;18.444;2023-05-14T08:31:35;20.20;91.30
17146;DHT22;8688;54.444;18.444;2023-05-14T08:34:03;20.20;92.20
17146;DHT22;8688;54.444;18.444;2023-05-14T08:36:31;20.20;91.60
17146;DHT22;8688;54.444;18.444;2023-05-14T08:38:58;20.20;90.80
17146;DHT22;8688;54.444;18.444;2023-05-14T08:41:26;20.20;92.30
17146;DHT22;8688;54.444;18.444;2023-05-14T08:43:59;20.30;92.70
17146;DHT22;8688;54.444;18.444;2023-05-14T08:46:29;20.50;92.30
17146;DHT22;8688;54.444;18.444;2023-05-14T08:49:09;20.50;94.00
17146;DHT22;8688;54.444;18.444;2023-05-14T08:51:42;20.50;92.50
17146;DHT22;8688;54.444;18.444;2023-05-14T08:54:11;20.50;93.00
17146;DHT22;8688;54.444;18.444;2023-05-14T08:56:43;20.60;92.30
17146;DHT22;8688;54.444;18.444;2023-05-14T08:59:11;20.60;90.50
17146;DHT22;8688;54.444;18.444;2023-05-14T09:01:43;20.60;90.40
17146;DHT22;8688;54.444;18.444;2023-05-14T09:04:15;20.70;87.50
17146;DHT22;8688;54.444;18.444;2023-05-14T09:06:47;20.70;90.30
17146;DHT22;8688;54.444;18.444;2023-05-14T09:09:15;20.70;89.60
17146;DHT22;8688;54.444;18.444;2023-05-14T09:11:44;20.70;90.70
17146;DHT22;8688;54.444;18.444;2023-05-14T09:14:12;20.80;90.30
17146;DHT22;8688;54.444;18.444;2023-05-14T09:16:40;20.90;87.70
17146;DHT22;8688;54.444;18.444;2023-05-14T09:19:13;20.90;89.20
17146;DHT22;8688;54.444;18.444;2023-05-14T09:21:41;21.00;90.00
17146;DHT22;8688;54.444;18.444;2023-05-14T09:24:08;21.00;85.60
17146;DHT22;8688;54.444;18.444;2023-05-14T09:26:44;20.90;87.00
17146;DHT22;8688;54.444;18.444;2023-05-14T09:29:15;20.90;81.80
17146;DHT22;8688;54.444;18.444;2023-05-14T09:31:43;21.00;83.30
17146;DHT22;8688;54.444;18.444;2023-05-14T09:34:10;21.10;89.50
17146;DHT22;8688;54.444;18.444;2023-05-14T09:36:40;21.10;84.80
17146;DHT22;8688;54.444;18.444;2023-05-14T09:39:07;21.20;85.70
17146;DHT22;8688;54.444;18.444;2023-05-14T09:41:35;21.20;85.50
17146;DHT22;8688;54.444;18.444;2023-05-14T09:44:03;21.30;88.00
17146;DHT22;8688;54.444;18.444;2023-05-14T09:46:30;21.30;85.30
17146;DHT22;8688;54.444;18.444;2023-05-14T09:48:58;21.30;80.30
17146;DHT22;8688;54.444;18.444;2023-05-14T09:51:28;21.30;81.60
17146;DHT22;8688;54.444;18.444;2023-05-14T09:53:59;21.30;82.10
17146;DHT22;8688;54.444;18.444;2023-05-14T09:56:27;21.30;85.80
17146;DHT22;8688;54.444;18.444;2023-05-14T09:58:54;21.40;84.50
17146;DHT22;8688;54.444;18.444;2023-05-14T10:01:22;21.50;81.00
17146;DHT22;8688;54.444;18.444;2023-05-14T10:03:52;21.60;77.80
17146;DHT22;8688;54.444;18.444;2023-05-14T10:06:22;21.60;81.30
17146;DHT22;8688;54.444;18.444;2023-05-14T10:08:53;21.80;81.70
17146;DHT22;8688;54.444;18.444;2023-05-14T10:11:24;21.80;83.80
17146;DHT22;8688;54.444;18.444;2023-05-14T10:13:59;21.90;77.80
17146;DHT22;8688;54.444;18.444;2023-05-14T10:16:30;21.80;75.00
17146;DHT22;8688;54.444;18.444;2023-05-14T10:19:02;21.80;71.20
17146;DHT22;8688;54.444;18.444;2023-05-14T10:21:34;21.70;74.90
17146;DHT22;8688;54.444;18.444;2023-05-14T10:24:03;21.70;75.70
17146;DHT22;8688;54.444;18.444;2023-05-14T10:26:35;21.70;75.40
17146;DHT22;8688;54.444;18.444;2023-05-14T10:29:04;21.80;77.90
17146;DHT22;8688;54.444;18.444;2023-05-14T10:31:45;21.70;76.30
17146;DHT22;8688;54.444;18.444;2023-05-14T10:34:35;21.80;77.90
17146;DHT22;8688;54.444;18.444;2023-05-14T10:37:10;21.80;80.80
17146;DHT22;8688;54.444;18.444;2023-05-14T10:39:45;22.00;80.90
17146;DHT22;8688;54.444;18.444;2023-05-14T10:42:17;22.20;80.50
17146;DHT22;8688;54.444;18.444;2023-05-14T10:44:48;22.30;83.30
17146;DHT22;8688;54.444;18.444;2023-05-14T10:47:17;22.30;82.60
17146;DHT22;8688;54.444;18.444;2023-05-14T10:49:45;22.40;83.10
17146;DHT22;8688;54.444;18.444;2023-05-14T10:52:18;22.30;78.90
17146;DHT22;8688;54.444;18.444;2023-05-14T10:54:50;22.20;82.60
17146;DHT22;8688;54.444;18.444;2023-05-14T10:57:21;22.20;81.20
17146;DHT22;8688;54.444;18.444;2023-05-14T10:59:50;22.10;82.00
17146;DHT22;8688;54.444;18.444;2023-05-14T11:02:24;22.10;82.70
17146;DHT22;8688;54.444;18.444;2023-05-14T11:04:56;22.10;81.10
17146;DHT22;8688;54.444;18.444;2023-05-14T11:07:27;22.20;79.50
17146;DHT22;8688;54.444;18.444;2023-05-14T11:10:00;22.20;81.20
17146;DHT22;8688;54.444;18.444;2023-05-14T11:12:30;22.00;80.90
17146;DHT22;8688;54.444;18.444;2023-05-14T11:14:59;22.00;79.50
17146;DHT22;8688;54.444;18.444;2023-05-14T11:17:28;22.00;81.90
17146;DHT22;8688;54.444;18.444;2023-05-14T11:19:56;22.00;81.10
17146;DHT22;8688;54.444;18.444;2023-05-14T11:22:24;22.10;81.40
17146;DHT22;8688;54.444;18.444;2023-05-14T11:24:51;22.30;80.40
17146;DHT22;8688;54.444;18.444;2023-05-14T11:27:20;22.20;79.90
17146;DHT22;8688;54.444;18.444;2023-05-14T11:29:51;21.70;79.20
17146;DHT22;8688;54.444;18.444;2023-05-14T11:32:21;21.40;81.90
17146;DHT22;8688;54.444;18.444;2023-05-14T11:34:48;21.40;81.20
17146;DHT22;8688;54.444;18.444;2023-05-14T11:37:16;21.40;82.00
17146;DHT22;8688;54.444;18.444;2023-05-14T11:39:48;21.20;80.50
17146;DHT22;8688;54.444;18.444;2023-05-14T11:42:16;21.10;81.60
17146;DHT22;8688;54.444;18.444;2023-05-14T11:44:45;21.00;80.10
17146;DHT22;8688;54.444;18.444;2023-05-14T11:47:16;20.80;81.40
17146;DHT22;8688;54.444;18.444;2023-05-14T11:49:44;20.70;77.60
17146;DHT22;8688;54.444;18.444;2023-05-14T11:52:13;20.60;80.00
17146;DHT22;8688;54.444;18.444;2023-05-14T11:54:42;20.60;78.10
17146;DHT22;8688;54.444;18.444;2023-05-14T11:57:12;20.60;79.00
17146;DHT22;8688;54.444;18.444;2023-05-14T11:59:40;21.00;78.70
17146;DHT22;8688;54.444;18.444;2023-05-14T12:02:09;21.40;81.30
17146;DHT22;8688;54.444;18.444;2023-05-14T12:04:43;21.70;78.60
17146;DHT22;8688;54.444;18.444;2023-05-14T12:07:12;22.00;79.20
17146;DHT22;8688;54.444;18.444;2023-05-14T12:09:42;22.20;78.40
17146;DHT22;8688;54.444;18.444;2023-05-14T12:12:15;22.40;78.20
17146;DHT22;8688;54.444;18.444;2023-05-14T12:14:43;22.50;75.30
17146;DHT22;8688;54.444;18.444;2023-05-14T12:17:12;22.40;76.30
17146;DHT22;8688;54.444;18.444;2023-05-14T12:19:43;22.40;75.30
17146;DHT22;8688;54.444;18.444;2023-05-14T12:22:11;22.20;74.40
17146;DHT22;8688;54.444;18.444;2023-05-14T12:24:40;22.10;75.30
17146;DHT22;8688;54.444;18.444;2023-05-14T12:27:09;22.20;76.60
17146;DHT22;8688;54.444;18.444;2023-05-14T12:29:37;22.30;77.00
17146;DHT22;8688;54.444;18.444;2023-05-14T12:32:08;22.30;76.70
17146;DHT22;8688;54.444;18.444;2023-05-14T12:34:36;22.30;76.70
17146;DHT22;8688;54.444;18.444;2023-05-14T12:37:05;22.20;75.30
17146;DHT22;8688;54.444;18.444;2023-05-14T12:39:33;21.90;73.00
17146;DHT22;8688;54.444;18.444;2023-05-14T12:42:01;21.60;73.50
17146;DHT22;8688;54.444;18.444;2023-05-14T12:44:32;21.60;74.90
17146;DHT22;8688;54.444;18.444;2023-05-14T12:46:59;21.70;72.90
17146;DHT22;8688;54.444;18.444;2023-05-14T12:49:27;22.00;71.80
17146;DHT22;8688;54.444;18.444;2023-05-14T12:51:54;22.20;70.50
17146;DHT22;8688;54.444;18.444;2023-05-14T12:54:23;22.30;72.50
17146;DHT22;8688;54.444;18.444;2023-05-14T12:56:51;22.30;69.70
17146;DHT22;8688;54.444;18.444;2023-05-14T12:59:18;22.40;70.50
17146;DHT22;8688;54.444;18.444;2023-05-14T13:01:47;22.30;69.30
17146;DHT22;8688;54.444;18.444;2023-05-14T13:04:16;22.00;70.00
17146;DHT22;8688;54.444;18.444;2023-05-14T13:06:44;22.00;69.30
17146;DHT22;8688;54.444;18.444;2023-05-14T13:09:11;21.80;70.70
17146;DHT22;8688;54.444;18.444;2023-05-14T13:11:40;21.50;71.10
17146;DHT22;8688;54.444;18.444;2023-05-14T13:14:08;21.30;71.30
17146;DHT22;8688;54.444;18.444;2023-05-14T13:16:35;21.10;72.00
17146;DHT22;8688;54.444;18.444;2023-05-14T13:19:03;20.90;72.80
17146;DHT22;8688;54.444;18.444;2023-05-14T13:21:31;20.80;73.30
17146;DHT22;8688;54.444;18.444;2023-05-14T13:23:58;20.70;73.70
17146;DHT22;8688;54.444;18.444;2023-05-14T13:26:26;20.70;72.90
17146;DHT22;8688;54.444;18.444;2023-05-14T13:28:55;20.60;73.90
17146;DHT22;8688;54.444;18.444;2023-05-14T13:31:22;20.80;75.20
17146;DHT22;8688;54.444;18.444;2023-05-14T13:33:52;21.40;74.10
17146;DHT22;8688;54.444;18.444;2023-05-14T13:36:27;21.70;73.50
17146;DHT22;8688;54.444;18.444;2023-05-14T13:38:55;21.90;74.00
17146;DHT22;8688;54.444;18.444;2023-05-14T13:41:24;22.10;74.00
17146;DHT22;8688;54.444;18.444;2023-05-14T13:43:53;22.10;71.20
17146;DHT22;8688;54.444;18.444;2023-05-14T13:46:21;21.80;74.20
17146;DHT22;8688;54.444;18.444;2023-05-14T13:48:48;21.50;76.10
17146;DHT22;8688;54.444;18.444;2023-05-14T13:51:16;21.30;77.30
17146;DHT22;8688;54.444;18.444;2023-05-14T13:53:44;21.20;78.80
17146;DHT22;8688;54.444;18.444;2023-05-14T13:56:11;21.50;79.10
17146;DHT22;8688;54.444;18.444;2023-05-14T13:58:38;21.60;80.60
17146;DHT22;8688;54.444;18.444;2023-05-14T14:01:07;21.50;82.00
17146;DHT22;8688;54.444;18.444;2023-05-14T14:03:35;21.50;80.00
17146;DHT22;8688;54.444;18.444;2023-05-14T14:06:03;21.60;81.30
17146;DHT22;8688;54.444;18.444;2023-05-14T14:08:30;21.80;81.00
17146;DHT22;8688;54.444;18.444;2023-05-14T14:10:58;22.20;78.80
17146;DHT22;8688;54.444;18.444;2023-05-14T14:13:25;22.40;75.70
17146;DHT22;8688;54.444;18.444;2023-05-14T14:15:54;22.50;76.50
17146;DHT22;8688;54.444;18.444;2023-05-14T14:18:23;22.60;77.60
17146;DHT22;8688;54.444;18.444;2023-05-14T14:20:50;22.90;78.60
17146;DHT22;8688;54.444;18.444;2023-05-14T14:23:18;22.90;73.80
17146;DHT22;8688;54.444;18.444;2023-05-14T14:25:46;22.50;71.70
17146;DHT22;8688;54.444;18.444;2023-05-14T14:28:13;22.10;73.30
17146;DHT22;8688;54.444;18.444;2023-05-14T14:30:41;21.80;74.30
17146;DHT22;8688;54.444;18.444;2023-05-14T14:33:09;21.60;75.40
17146;DHT22;8688;54.444;18.444;2023-05-14T14:35:38;21.30;77.10
17146;DHT22;8688;54.444;18.444;2023-05-14T14:38:06;20.90;78.10
17146;DHT22;8688;54.444;18.444;2023-05-14T14:40:34;20.60;80.70
17146;DHT22;8688;54.444;18.444;2023-05-14T14:43:01;20.50;80.30
17146;DHT22;8688;54.444;18.444;2023-05-14T14:45:28;20.40;80.90
17146;DHT22;8688;54.444;18.444;2023-05-14T14:48:27;20.30;81.60
17146;DHT22;8688;54.444;18.444;2023-05-14T14:50:57;20.20;80.50
17146;DHT22;8688;54.444;18.444;2023-05-14T14:53:26;20.00;79.90
17146;DHT22;8688;54.444;18.444;2023-05-14T14:55:53;19.90;80.70
17146;DHT22;8688;54.444;18.444;2023-05-14T14:58:21;19.80;80.90
17146;DHT22;8688;54.444;18.444;2023-05-14T15:00:51;19.70;82.20
17146;DHT22;8688;54.444;18.444;2023-05-14T15:03:19;19.70;81.50
17146;DHT22;8688;54.444;18.444;2023-05-14T15:05:46;19.80;82.40
17146;DHT22;8688;54.444;18.444;2023-05-14T15:08:15;19.80;82.20
17146;DHT22;8688;54.444;18.444;2023-05-14T15:10:44;19.60;82.60
17146;DHT22;8688;54.444;18.444;2023-05-14T15:13:11;19.40;82.40
17146;DHT22;8688;54.444;18.444;2023-05-14T15:15:39;19.30;83.60
17146;DHT22;8688;54.444;18.444;2023-05-14T15:18:06;19.20;85.10
17146;DHT22;8688;54.444;18.444;2023-05-14T15:20:34;19.30;85.80
17146;DHT22;8688;54.444;18.444;2023-05-14T15:23:01;19.20;85.20
17146;DHT22;8688;54.444;18.444;2023-05-14T15:25:30;19.10;85.70
17146;DHT22;8688;54.444;18.444;2023-05-14T15:27:58;19.10;86.20
17146;DHT22;8688;54.444;18.444;2023-05-14T15:30:25;19.10;86.60
17146;DHT22;8688;54.444;18.444;2023-05-14T15:32:53;19.10;86.60
17146;DHT22;8688;54.444;18.444;2023-05-14T15:35:21;19.00;87.40
17146;DHT22;8688;54.444;18.444;2023-05-14T15:37:49;18.90;87.80
17146;DHT22;8688;54.444;18.444;2023-05-14T15:40:18;18.90;87.90
17146;DHT22;8688;54.444;18.444;2023-05-14T15:42:48;18.80;87.70